createdAt,value
2018-04-20T00:02:22.241Z,17.03
2018-04-20T00:04:51.249Z,13.27
2018-04-20T00:07:19.448Z,13.37
2018-04-20T00:09:47.634Z,14.27
2018-04-20T00:12:15.761Z,13.90
2018-04-20T00:14:43.988Z,14.97
2018-04-20T00:17:12.111Z,14.77
2018-04-20T00:19:41.002Z,13.43
2018-04-20T00:22:09.113Z,13.43
2018-04-20T00:24:38.569Z,13.53
2018-04-20T00:27:07.481Z,12.87
2018-04-20T00:29:35.716Z,13.90
2018-04-20T00:32:04.056Z,13.60
2018-04-20T00:34:32.201Z,13.53
2018-04-20T00:37:00.381Z,12.73
2018-04-20T00:39:28.516Z,13.10
2018-04-20T00:41:57.500Z,13.90
2018-04-20T00:44:25.686Z,13.53
2018-04-20T00:46:53.808Z,15.83
2018-04-20T00:49:21.951Z,13.77
2018-04-20T00:51:50.078Z,13.90
2018-04-20T00:54:24.190Z,13.57
2018-04-20T00:56:52.324Z,13.73
2018-04-20T00:59:20.470Z,13.67
2018-04-20T01:01:49.676Z,13.73
2018-04-20T01:04:17.808Z,13.50
2018-04-20T01:06:47.454Z,13.67
2018-04-20T01:09:16.404Z,13.77
2018-04-20T01:11:44.682Z,13.73
2018-04-20T01:14:12.872Z,12.97
2018-04-20T01:16:41.088Z,13.53
2018-04-20T01:19:09.211Z,13.63
2018-04-20T01:21:37.435Z,13.77
2018-04-20T01:24:05.582Z,16.27
2018-04-20T01:26:34.483Z,14.80
2018-04-20T01:29:03.894Z,14.30
2018-04-20T01:31:32.334Z,13.40
2018-04-20T01:34:01.971Z,13.87
2018-04-20T01:36:30.863Z,13.87
2018-04-20T01:38:59.761Z,13.73
2018-04-20T01:41:27.961Z,13.93
2018-04-20T01:43:56.128Z,14.07
2018-04-20T01:46:24.264Z,13.60
2018-04-20T01:48:52.431Z,13.07
2018-04-20T01:51:20.540Z,14.10
2018-04-20T01:53:48.904Z,13.33
2018-04-20T01:56:17.195Z,14.67
2018-04-20T01:58:45.311Z,13.20
2018-04-20T02:01:13.467Z,13.40
2018-04-20T02:03:41.660Z,13.63
2018-04-20T02:06:09.796Z,15.90
2018-04-20T02:08:37.942Z,13.70
2018-04-20T02:11:06.828Z,13.50
2018-04-20T02:13:35.764Z,15.20
2018-04-20T02:16:03.972Z,15.03
2018-04-20T02:18:33.025Z,14.63
2018-04-20T02:21:01.228Z,14.10
2018-04-20T02:23:29.449Z,13.83
2018-04-20T02:25:58.344Z,15.27
2018-04-20T02:28:26.475Z,14.60
2018-04-20T02:30:54.619Z,14.50
2018-04-20T02:33:23.659Z,14.23
2018-04-20T02:35:52.753Z,14.47
2018-04-20T02:38:20.893Z,15.20
2018-04-20T02:40:49.634Z,14.50
2018-04-20T02:43:18.520Z,15.20
2018-04-20T02:45:48.020Z,13.77
2018-04-20T02:48:16.918Z,14.87
2018-04-20T02:50:45.794Z,15.03
2018-04-20T02:53:13.941Z,14.37
2018-04-20T02:55:44.107Z,15.23
2018-04-20T02:58:12.236Z,15.43
2018-04-20T03:00:40.374Z,14.53
2018-04-20T03:03:08.559Z,14.57
2018-04-20T03:05:36.701Z,15.03
2018-04-20T03:08:05.741Z,15.40
2018-04-20T03:10:33.976Z,14.47
2018-04-20T03:13:02.665Z,15.00
2018-04-20T03:15:30.803Z,14.33
2018-04-20T03:18:00.134Z,15.43
2018-04-20T03:20:28.392Z,15.37
2018-04-20T03:22:56.569Z,14.67
2018-04-20T03:25:25.468Z,14.30
2018-04-20T03:27:54.364Z,15.93
2018-04-20T03:30:23.433Z,16.23
2018-04-20T03:32:51.544Z,15.73
2018-04-20T03:35:19.776Z,16.60
2018-04-20T03:37:48.682Z,16.50
2018-04-20T03:40:18.839Z,15.87
2018-04-20T03:42:46.974Z,16.20
2018-04-20T03:45:15.890Z,16.20
2018-04-20T03:47:44.005Z,15.30
2018-04-20T03:50:12.140Z,17.23
2018-04-20T03:52:41.820Z,16.50
2018-04-20T03:55:10.798Z,16.17
2018-04-20T03:57:40.433Z,16.67
2018-04-20T04:00:09.337Z,16.10
2018-04-20T04:02:39.812Z,15.87
2018-04-20T04:05:08.841Z,17.13
2018-04-20T04:07:37.733Z,19.30
2018-04-20T04:10:05.897Z,18.23
2018-04-20T04:12:34.170Z,17.20
2018-04-20T04:15:02.356Z,17.17
2018-04-20T04:17:42.396Z,16.70
2018-04-20T04:20:22.997Z,18.63
2018-04-20T04:23:02.953Z,18.60
2018-04-20T04:25:55.974Z,17.57
2018-04-20T04:28:26.964Z,19.90
2018-04-20T04:30:56.964Z,17.53
2018-04-20T04:33:25.920Z,18.30
2018-04-20T04:35:54.051Z,19.10
2018-04-20T04:38:22.186Z,17.63
2018-04-20T04:40:50.309Z,17.77
2018-04-20T04:43:18.860Z,16.40
2018-04-20T04:45:47.006Z,18.07
2018-04-20T04:48:15.881Z,17.97
2018-04-20T04:50:44.197Z,21.57
2018-04-20T04:53:13.991Z,17.93
2018-04-20T04:55:44.276Z,17.23
2018-04-20T04:58:14.091Z,21.60
2018-04-20T05:00:42.321Z,21.77
2018-04-20T05:03:10.568Z,20.07
2018-04-20T05:05:39.587Z,18.50
2018-04-20T05:08:07.856Z,19.30
2018-04-20T05:10:36.143Z,16.83
2018-04-20T05:13:04.303Z,17.33
2018-04-20T05:15:32.511Z,18.50
2018-04-20T05:18:00.813Z,19.73
2018-04-20T05:20:29.012Z,19.07
2018-04-20T05:22:58.474Z,16.63
2018-04-20T05:25:26.649Z,15.33
2018-04-20T05:27:55.602Z,22.23
2018-04-20T05:30:23.925Z,17.93
2018-04-20T05:32:52.469Z,16.03
2018-04-20T05:35:20.566Z,16.80
2018-04-20T05:37:48.689Z,15.13
2018-04-20T05:40:17.592Z,19.13
2018-04-20T05:42:45.921Z,17.97
2018-04-20T05:45:15.466Z,17.40
2018-04-20T05:47:44.368Z,16.53
2018-04-20T05:50:13.264Z,16.57
2018-04-20T05:52:46.089Z,14.40
2018-04-20T05:55:18.645Z,13.87
2018-04-20T05:57:46.847Z,15.77
2018-04-20T06:00:15.615Z,13.67
2018-04-20T06:02:47.954Z,14.10
2018-04-20T06:05:16.071Z,13.47
2018-04-20T06:07:44.756Z,13.97
2018-04-20T06:10:12.899Z,16.43
2018-04-20T06:12:41.029Z,13.27
2018-04-20T06:15:09.136Z,12.40
2018-04-20T06:17:41.497Z,14.63
2018-04-20T06:20:10.405Z,13.17
2018-04-20T06:22:40.380Z,13.23
2018-04-20T06:25:08.825Z,16.27
2018-04-20T06:27:37.122Z,14.33
2018-04-20T06:30:06.869Z,13.10
2018-04-20T06:32:35.273Z,13.40
2018-04-20T06:35:07.752Z,12.57
2018-04-20T06:37:35.967Z,13.20
2018-04-20T06:40:04.087Z,11.93
2018-04-20T06:42:32.394Z,11.60
2018-04-20T06:45:00.731Z,14.57
2018-04-20T06:47:28.937Z,17.27
2018-04-20T06:49:57.196Z,18.07
2018-04-20T06:52:25.472Z,18.50
2018-04-20T06:54:53.597Z,16.67
2018-04-20T06:57:21.888Z,14.47
2018-04-20T06:59:50.009Z,10.73
2018-04-20T07:02:18.143Z,17.57
2018-04-20T07:04:47.073Z,11.27
2018-04-20T07:07:16.073Z,12.50
2018-04-20T07:09:44.169Z,12.73
2018-04-20T07:12:12.449Z,14.67
2018-04-20T07:14:40.481Z,12.70
2018-04-20T07:17:08.581Z,12.80
2018-04-20T07:19:36.699Z,12.60
2018-04-20T07:22:04.801Z,12.60
2018-04-20T07:24:32.912Z,14.03
2018-04-20T07:27:01.099Z,12.13
2018-04-20T07:29:30.028Z,13.13
2018-04-20T07:31:58.146Z,15.43
2018-04-20T07:34:26.267Z,12.70
2018-04-20T07:36:54.392Z,13.07
2018-04-20T07:39:23.028Z,12.70
2018-04-20T07:41:51.269Z,14.20
2018-04-20T07:44:20.221Z,12.77
2018-04-20T07:46:48.321Z,11.50
2018-04-20T07:49:17.359Z,14.40
2018-04-20T07:51:48.365Z,14.27
2018-04-20T07:54:19.198Z,14.20
2018-04-20T07:56:47.291Z,18.53
2018-04-20T07:59:16.191Z,14.57
2018-04-20T08:01:44.314Z,13.83
2018-04-20T08:04:16.242Z,13.80
2018-04-20T08:06:44.355Z,15.40
2018-04-20T08:09:12.482Z,11.80
2018-04-20T08:11:40.632Z,14.53
2018-04-20T08:14:08.765Z,14.57
2018-04-20T08:16:37.078Z,12.90
2018-04-20T08:19:05.172Z,15.93
2018-04-20T08:21:33.301Z,13.60
2018-04-20T08:24:01.598Z,20.53
2018-04-20T08:26:30.454Z,13.97
2018-04-20T08:28:58.781Z,13.27
2018-04-20T08:31:27.820Z,13.90
2018-04-20T08:33:55.949Z,13.43
2018-04-20T08:36:24.185Z,13.53
2018-04-20T08:38:52.289Z,14.83
2018-04-20T08:41:21.194Z,12.23
2018-04-20T08:43:49.394Z,11.67
2018-04-20T08:46:17.497Z,10.47
2018-04-20T08:48:46.952Z,13.30
2018-04-20T08:51:15.162Z,14.67
2018-04-20T08:53:43.295Z,14.13
2018-04-20T08:56:11.393Z,11.27
2018-04-20T08:58:43.620Z,14.10
2018-04-20T09:01:15.683Z,12.30
2018-04-20T09:03:45.266Z,14.47
2018-04-20T09:06:13.380Z,11.03
2018-04-20T09:08:41.565Z,10.37
2018-04-20T09:11:09.689Z,12.53
2018-04-20T09:13:37.949Z,12.70
2018-04-20T09:16:06.228Z,9.27
2018-04-20T09:18:35.124Z,11.17
2018-04-20T09:21:03.226Z,10.67
2018-04-20T09:23:32.090Z,10.17
2018-04-20T09:26:01.025Z,8.80
2018-04-20T09:28:29.981Z,10.70
2018-04-20T09:30:58.090Z,9.53
2018-04-20T09:33:26.206Z,10.33
2018-04-20T09:35:54.317Z,8.70
2018-04-20T09:38:23.354Z,8.20
2018-04-20T09:40:51.659Z,12.90
2018-04-20T09:43:19.804Z,10.57
2018-04-20T09:45:48.749Z,9.73
2018-04-20T09:48:17.614Z,8.00
2018-04-20T09:50:45.755Z,8.63
2018-04-20T09:53:18.605Z,11.20
2018-04-20T09:55:50.356Z,10.07
2018-04-20T09:58:19.487Z,8.90
2018-04-20T10:00:48.324Z,9.80
2018-04-20T10:03:16.605Z,11.03
2018-04-20T10:05:44.786Z,8.17
2018-04-20T10:08:15.299Z,10.10
2018-04-20T10:10:43.416Z,13.13
2018-04-20T10:13:11.538Z,9.00
2018-04-20T10:15:41.144Z,9.53
2018-04-20T10:18:10.074Z,10.37
2018-04-20T10:20:38.195Z,12.33
2018-04-20T10:23:06.590Z,13.47
2018-04-20T10:25:34.765Z,8.13
2018-04-20T10:28:03.506Z,12.07
2018-04-20T10:30:31.627Z,13.90
2018-04-20T10:32:59.737Z,8.67
2018-04-20T10:35:27.879Z,9.23
2018-04-20T10:37:56.800Z,9.13
2018-04-20T10:40:24.925Z,11.10
2018-04-20T10:42:53.028Z,9.47
2018-04-20T10:45:21.908Z,10.10
2018-04-20T10:47:50.908Z,8.37
2018-04-20T10:50:19.013Z,9.20
2018-04-20T10:52:47.490Z,13.00
2018-04-20T10:55:15.736Z,9.17
2018-04-20T10:57:45.057Z,8.60
2018-04-20T11:00:17.908Z,9.27
2018-04-20T11:02:46.100Z,12.73
2018-04-20T11:05:15.610Z,8.73
2018-04-20T11:07:44.786Z,7.27
2018-04-20T11:10:13.004Z,10.93
2018-04-20T11:12:41.117Z,9.40
2018-04-20T11:15:09.405Z,4.83
2018-04-20T11:17:37.692Z,9.37
2018-04-20T11:20:07.282Z,9.63
2018-04-20T11:22:35.403Z,8.33
2018-04-20T11:25:03.634Z,8.37
2018-04-20T11:27:31.874Z,7.87
2018-04-20T11:30:00.017Z,7.93
2018-04-20T11:32:28.124Z,7.73
2018-04-20T11:34:56.239Z,8.80
2018-04-20T11:37:25.114Z,6.10
2018-04-20T11:39:53.236Z,5.33
2018-04-20T11:42:21.368Z,7.17
2018-04-20T11:44:49.601Z,4.10
2018-04-20T11:47:17.839Z,8.87
2018-04-20T11:49:45.895Z,6.03
2018-04-20T11:52:14.213Z,7.27
2018-04-20T11:54:43.035Z,6.37
2018-04-20T11:57:11.144Z,9.63
2018-04-20T11:59:39.231Z,8.70
2018-04-20T12:02:09.853Z,7.93
2018-04-20T12:04:37.925Z,7.13
2018-04-20T12:07:06.793Z,4.67
2018-04-20T12:09:35.043Z,6.83
2018-04-20T12:12:03.295Z,8.20
2018-04-20T12:14:31.412Z,7.07
2018-04-20T12:16:59.522Z,11.33
2018-04-20T12:19:27.646Z,7.77
2018-04-20T12:21:55.752Z,6.40
2018-04-20T12:24:24.624Z,7.37
2018-04-20T12:26:53.498Z,7.20
2018-04-20T12:29:21.633Z,5.87
2018-04-20T12:31:49.741Z,7.77
2018-04-20T12:34:17.933Z,6.70
2018-04-20T12:36:46.039Z,6.97
2018-04-20T12:39:14.146Z,9.33
2018-04-20T12:41:42.241Z,5.37
2018-04-20T12:44:10.481Z,11.17
2018-04-20T12:46:38.587Z,5.27
2018-04-20T12:49:06.905Z,9.97
2018-04-20T12:51:35.793Z,9.60
2018-04-20T12:54:04.635Z,7.03
2018-04-20T12:56:32.738Z,9.90
2018-04-20T12:59:02.412Z,9.10
2018-04-20T13:01:30.519Z,7.17
2018-04-20T13:03:58.632Z,7.90
2018-04-20T13:06:26.871Z,9.20
2018-04-20T13:08:56.096Z,5.43
2018-04-20T13:11:26.019Z,7.97
2018-04-20T13:13:54.149Z,8.93
2018-04-20T13:16:22.258Z,5.80
2018-04-20T13:18:50.565Z,12.50
2018-04-20T13:21:18.863Z,6.97
2018-04-20T13:23:47.203Z,5.87
2018-04-20T13:26:15.439Z,8.17
2018-04-20T13:28:44.332Z,7.20
2018-04-20T13:31:13.195Z,7.53
2018-04-20T13:33:41.326Z,10.73
2018-04-20T13:36:09.595Z,7.80
2018-04-20T13:38:37.811Z,9.20
2018-04-20T13:41:06.027Z,6.27
2018-04-20T13:43:34.979Z,6.43
2018-04-20T13:46:03.244Z,10.10
2018-04-20T13:48:31.481Z,6.97
2018-04-20T13:51:00.604Z,8.70
2018-04-20T13:53:28.737Z,5.97
2018-04-20T13:55:57.599Z,8.67
2018-04-20T13:58:25.710Z,7.87
2018-04-20T14:00:53.808Z,9.37
2018-04-20T14:03:22.053Z,7.93
2018-04-20T14:05:50.925Z,7.70
2018-04-20T14:08:19.813Z,6.80
2018-04-20T14:10:48.702Z,5.10
2018-04-20T14:13:16.827Z,7.03
2018-04-20T14:15:45.232Z,6.53
2018-04-20T14:18:13.369Z,7.17
2018-04-20T14:20:41.697Z,6.80
2018-04-20T14:23:10.946Z,7.07
2018-04-20T14:25:39.055Z,6.47
2018-04-20T14:28:07.319Z,9.13
2018-04-20T14:30:36.750Z,7.37
2018-04-20T14:33:05.769Z,5.70
2018-04-20T14:35:35.598Z,6.83
2018-04-20T14:38:03.820Z,9.07
2018-04-20T14:40:31.926Z,5.27
2018-04-20T14:43:00.820Z,10.57
2018-04-20T14:45:29.055Z,8.30
2018-04-20T14:47:57.242Z,8.43
2018-04-20T14:50:26.263Z,8.80
2018-04-20T14:52:55.128Z,9.73
2018-04-20T14:55:23.220Z,8.70
2018-04-20T14:57:52.133Z,7.03
2018-04-20T15:00:20.442Z,9.23
2018-04-20T15:02:48.616Z,6.87
2018-04-20T15:05:16.711Z,6.47
2018-04-20T15:07:44.830Z,9.27
2018-04-20T15:10:13.181Z,7.17
2018-04-20T15:12:41.301Z,6.87
2018-04-20T15:15:09.403Z,9.23
2018-04-20T15:17:37.530Z,7.47
2018-04-20T15:20:05.791Z,7.87
2018-04-20T15:22:33.899Z,10.23
2018-04-20T15:25:02.132Z,7.25
2018-04-20T15:27:31.190Z,7.85
2018-04-20T15:29:59.306Z,5.85
2018-04-20T15:32:27.438Z,19.35
2018-04-20T15:34:55.568Z,21.02
2018-04-20T15:37:24.314Z,20.75
2018-04-20T15:39:52.446Z,18.23
2018-04-20T15:42:21.399Z,18.52
2018-04-20T15:44:50.280Z,14.65
2018-04-20T15:47:18.622Z,14.80
2018-04-20T15:49:46.753Z,13.60
2018-04-20T15:52:14.922Z,15.43
2018-04-20T15:54:43.012Z,13.55
2018-04-20T15:57:11.139Z,14.95
2018-04-20T15:59:40.033Z,12.40
2018-04-20T16:02:08.189Z,15.68
2018-04-20T16:04:36.390Z,16.12
2018-04-20T16:07:05.703Z,15.68
2018-04-20T16:09:34.574Z,19.02
2018-04-20T16:12:04.814Z,14.10
2018-04-20T16:14:32.931Z,14.98
2018-04-20T16:17:01.050Z,11.88
2018-04-20T16:19:29.927Z,11.88
2018-04-20T16:21:58.806Z,13.88
2018-04-20T16:24:26.910Z,13.13
2018-04-20T16:26:55.079Z,11.68
2018-04-20T16:29:23.214Z,13.88
2018-04-20T16:31:51.393Z,10.97
2018-04-20T16:34:19.521Z,8.93
2018-04-20T16:36:47.636Z,8.70
2018-04-20T16:39:15.832Z,7.43
2018-04-20T16:41:44.616Z,8.37
2018-04-20T16:44:12.865Z,8.70
2018-04-20T16:46:40.986Z,6.78
2018-04-20T16:49:09.958Z,7.73
2018-04-20T16:51:38.880Z,5.50
2018-04-20T16:54:06.987Z,5.67
2018-04-20T16:56:35.260Z,3.62
2018-04-20T16:59:03.438Z,5.75
2018-04-20T17:01:31.586Z,4.50
2018-04-20T17:03:59.708Z,4.60
2018-04-20T17:06:27.821Z,5.40
2018-04-20T17:08:56.775Z,3.43
2018-04-20T17:11:24.883Z,3.60
2018-04-20T17:13:53.095Z,6.00
2018-04-20T17:16:21.460Z,3.40
2018-04-20T17:18:49.695Z,5.00
2018-04-20T17:21:18.545Z,4.07
2018-04-20T17:23:46.663Z,3.53
2018-04-20T17:26:14.802Z,4.73
2018-04-20T17:28:42.997Z,3.63
2018-04-20T17:31:11.891Z,4.63
2018-04-20T17:33:40.870Z,2.67
2018-04-20T17:36:08.978Z,2.73
2018-04-20T17:38:37.233Z,5.33
2018-04-20T17:41:05.488Z,3.57
2018-04-20T17:43:33.765Z,2.70
2018-04-20T17:46:01.970Z,3.10
2018-04-20T17:48:30.861Z,4.97
2018-04-20T17:50:59.739Z,4.33
2018-04-20T17:53:28.605Z,5.40
2018-04-20T17:55:56.710Z,8.80
2018-04-20T17:58:25.621Z,3.13
2018-04-20T18:00:53.714Z,3.23
2018-04-20T18:03:21.830Z,5.57
2018-04-20T18:05:50.753Z,5.57
2018-04-20T18:08:19.221Z,6.00
2018-04-20T18:10:48.177Z,5.00
2018-04-20T18:13:16.367Z,3.47
2018-04-20T18:15:44.467Z,4.10
2018-04-20T18:18:12.737Z,3.20
2018-04-20T18:20:41.303Z,5.67
2018-04-20T18:23:10.942Z,5.30
2018-04-20T18:25:39.062Z,4.63
2018-04-20T18:28:07.172Z,3.70
2018-04-20T18:30:36.098Z,3.93
2018-04-20T18:33:05.140Z,8.30
2018-04-20T18:35:33.330Z,6.00
2018-04-20T18:38:02.951Z,5.20
2018-04-20T18:40:31.079Z,5.40
2018-04-20T18:42:59.392Z,3.87
2018-04-20T18:45:28.253Z,6.33
2018-04-20T18:47:56.356Z,6.50
2018-04-20T18:50:24.483Z,4.20
2018-04-20T18:52:52.644Z,5.53
2018-04-20T18:55:20.785Z,5.10
2018-04-20T18:57:49.706Z,6.17
2018-04-20T19:00:17.812Z,7.60
2018-04-20T19:02:46.731Z,10.60
2018-04-20T19:05:14.843Z,8.57
2018-04-20T19:07:43.112Z,9.53
2018-04-20T19:10:11.317Z,10.40
2018-04-20T19:12:39.518Z,11.93
2018-04-20T19:15:08.471Z,10.83
2018-04-20T19:17:36.566Z,9.93
2018-04-20T19:20:04.671Z,9.33
2018-04-20T19:22:32.766Z,11.83
2018-04-20T19:25:02.076Z,10.20
2018-04-20T19:27:30.309Z,12.43
2018-04-20T19:29:59.182Z,12.27
2018-04-20T19:32:32.743Z,9.00
2018-04-20T19:35:01.598Z,13.37
2018-04-20T19:37:29.723Z,14.53
2018-04-20T19:39:57.871Z,17.03
2018-04-20T19:42:26.063Z,17.10
2018-04-20T19:44:54.365Z,20.83
2018-04-20T19:47:22.649Z,21.73
2018-04-20T19:49:50.794Z,23.53
2018-04-20T19:52:18.926Z,26.30
2018-04-20T19:54:47.031Z,25.47
2018-04-20T19:57:15.882Z,27.90
2018-04-20T19:59:44.021Z,29.15
2018-04-20T20:02:12.141Z,29.47
2018-04-20T20:04:40.452Z,29.57
2018-04-20T20:07:08.562Z,33.10
2018-04-20T20:09:37.440Z,29.10
2018-04-20T20:12:06.352Z,31.93
2018-04-20T20:14:34.475Z,29.80
2018-04-20T20:17:02.802Z,32.40
2018-04-20T20:19:30.910Z,33.90
2018-04-20T20:21:59.154Z,34.53
2018-04-20T20:24:28.140Z,33.63
2018-04-20T20:26:57.632Z,33.07
2018-04-20T20:29:26.604Z,32.33
2018-04-20T20:31:54.918Z,39.37
2018-04-20T20:34:23.099Z,39.97
2018-04-20T20:36:52.262Z,37.87
2018-04-20T20:39:20.379Z,42.00
2018-04-20T20:41:48.493Z,43.37
2018-04-20T20:44:16.783Z,42.60
2018-04-20T20:46:44.890Z,44.60
2018-04-20T20:49:13.079Z,47.93
2018-04-20T20:51:41.211Z,50.90
2018-04-20T20:54:10.096Z,48.33
2018-04-20T20:56:38.989Z,49.37
2018-04-20T20:59:07.892Z,45.70
2018-04-20T21:01:36.782Z,50.33
2018-04-20T21:04:06.134Z,52.03
2018-04-20T21:06:34.447Z,46.63
2018-04-20T21:09:02.562Z,45.60
2018-04-20T21:11:30.837Z,48.17
2018-04-20T21:13:59.727Z,44.43
2018-04-20T21:16:27.840Z,44.60
2018-04-20T21:18:55.936Z,49.10
2018-04-20T21:21:24.943Z,50.83
2018-04-20T21:23:53.986Z,50.87
2018-04-20T21:26:22.132Z,59.33
2018-04-20T21:28:50.257Z,52.07
2018-04-20T21:31:18.726Z,59.23
2018-04-20T21:33:48.219Z,57.87
2018-04-20T21:36:16.337Z,63.73
2018-04-20T21:38:45.347Z,65.13
2018-04-20T21:41:13.511Z,65.83
2018-04-20T21:43:41.652Z,69.33
2018-04-20T21:46:09.795Z,73.70
2018-04-20T21:48:37.980Z,75.10
2018-04-20T21:51:06.114Z,78.13
2018-04-20T21:53:34.242Z,71.93
2018-04-20T21:56:02.451Z,81.50
2018-04-20T21:58:31.338Z,83.27
2018-04-20T22:01:00.301Z,78.63
2018-04-20T22:03:28.572Z,82.53
2018-04-20T22:05:56.783Z,78.53
2018-04-20T22:08:25.651Z,79.63
2018-04-20T22:10:53.784Z,82.53
2018-04-20T22:13:21.919Z,83.80
2018-04-20T22:15:50.793Z,91.40
2018-04-20T22:18:18.953Z,93.30
2018-04-20T22:20:48.701Z,95.17
2018-04-20T22:23:17.039Z,105.97
2018-04-20T22:25:46.829Z,105.73
2018-04-20T22:28:15.661Z,97.03
2018-04-20T22:30:43.768Z,98.47
2018-04-20T22:33:11.956Z,98.97
2018-04-20T22:35:40.180Z,100.50
2018-04-20T22:38:09.268Z,105.43
2018-04-20T22:40:38.871Z,111.23
2018-04-20T22:43:07.420Z,110.33
2018-04-20T22:45:35.529Z,112.50
2018-04-20T22:48:03.803Z,115.30
2018-04-20T22:50:31.936Z,112.03
2018-04-20T22:53:00.055Z,116.93
2018-04-20T22:55:28.352Z,111.63
2018-04-20T22:57:56.462Z,103.80
2018-04-20T23:00:24.578Z,110.23
2018-04-20T23:02:52.851Z,107.23
2018-04-20T23:05:22.205Z,108.90
2018-04-20T23:07:50.317Z,115.27
2018-04-20T23:10:18.432Z,115.97
2018-04-20T23:12:46.589Z,111.77
2018-04-20T23:15:15.637Z,112.90
2018-04-20T23:17:45.307Z,107.27
2018-04-20T23:20:14.269Z,117.27
2018-04-20T23:22:42.403Z,121.40
2018-04-20T23:25:10.627Z,116.43
2018-04-20T23:27:38.798Z,110.27
2018-04-20T23:30:07.001Z,109.63
2018-04-20T23:32:35.135Z,117.77
2018-04-20T23:35:03.263Z,128.57
2018-04-20T23:37:31.374Z,114.77
2018-04-20T23:39:59.519Z,118.20
2018-04-20T23:42:27.650Z,116.83
2018-04-20T23:44:55.799Z,120.17
2018-04-20T23:47:24.157Z,118.70
2018-04-20T23:49:52.284Z,118.80
2018-04-20T23:52:20.444Z,117.73
2018-04-20T23:54:48.569Z,125.83
2018-04-20T23:57:16.862Z,118.20
2018-04-20T23:59:44.971Z,114.93
